Time;durP1;ratioP1;P1;durP2;ratioP2;P2;SDS_P1;SDS_P2;PMS_P1;PMS_P2;Temp;Humidity;BMP_temperature;BMP_pressure;BME280_temperature;BME280_humidity;BME280_pressure;Samples;Min_cycle;Max_cycle;Signal;HPM_P1;HPM_P2
2022/10/03 00:02:33;;;;;;;16.23;5.35;;;;;;;11.03;100.00;101539.03;8250449;28;20050;-54
2022/10/03 00:07:06;;;;;;;16.85;5.97;;;;;;;11.04;100.00;101543.44;8249354;28;20043;-55
2022/10/03 00:11:29;;;;;;;21.75;6.38;;;;;;;11.09;100.00;101546.69;8249929;28;20456;-54
2022/10/03 00:15:48;;;;;;;25.10;6.75;;;;;;;11.13;100.00;101564.41;8246725;28;20416;-55
2022/10/03 00:20:18;;;;;;;25.13;6.10;;;;;;;11.08;100.00;101565.75;8276323;28;20062;-54
2022/10/03 00:29:06;;;;;;;28.42;6.78;;;;;;;11.24;100.00;101561.72;8269356;28;20781;-51
2022/10/03 00:33:34;;;;;;;23.48;7.25;;;;;;;11.32;100.00;101564.69;8250419;28;20046;-51
2022/10/03 00:37:44;;;;;;;16.83;7.15;;;;;;;11.19;100.00;101572.03;8247814;28;20062;-53
2022/10/03 00:46:30;;;;;;;24.25;10.52;;;;;;;11.18;100.00;101564.91;8394236;27;20892;-53
2022/10/03 00:50:58;;;;;;;25.40;6.55;;;;;;;11.10;100.00;101574.63;8380785;28;20618;-52
2022/10/03 00:55:24;;;;;;;27.15;5.68;;;;;;;11.19;100.00;101574.75;8382071;28;20044;-53
2022/10/03 00:59:52;;;;;;;19.95;5.55;;;;;;;11.25;100.00;101571.56;8391505;28;20466;-53
2022/10/03 01:09:05;;;;;;;20.80;4.97;;;;;;;11.19;100.00;101579.31;8291408;28;20409;-50
2022/10/03 01:22:43;;;;;;;25.42;6.70;;;;;;;10.99;100.00;101588.97;8402999;27;20383;-53
2022/10/03 01:27:05;;;;;;;23.15;6.13;;;;;;;10.96;100.00;101578.38;8371464;27;20033;-52
2022/10/03 01:31:10;;;;;;;22.50;5.55;;;;;;;10.74;100.00;101580.13;8383084;28;20402;-52
2022/10/03 01:35:42;;;;;;;18.00;4.50;;;;;;;10.66;100.00;101575.28;8382540;27;20067;-54
2022/10/03 01:39:54;;;;;;;19.35;4.78;;;;;;;10.57;100.00;101581.38;8381573;28;20059;-51
2022/10/03 01:44:01;;;;;;;19.90;5.32;;;;;;;10.54;100.00;101570.78;8378291;28;20047;-51
2022/10/03 01:48:29;;;;;;;19.27;5.07;;;;;;;10.53;100.00;101579.88;8364436;28;20041;-54
2022/10/03 01:52:44;;;;;;;15.38;4.80;;;;;;;10.51;100.00;101581.84;8393859;27;20097;-53
2022/10/03 01:57:11;;;;;;;21.95;5.05;;;;;;;10.34;100.00;101590.31;8396948;27;20040;-54
2022/10/03 02:01:43;;;;;;;17.05;4.78;;;;;;;10.20;100.00;101604.00;8348603;28;20048;-53
2022/10/03 02:06:05;;;;;;;24.73;5.30;;;;;;;10.29;100.00;101606.03;8396351;27;20044;-54
2022/10/03 02:10:29;;;;;;;19.60;5.78;;;;;;;10.18;100.00;101602.41;8392158;27;20039;-52
2022/10/03 02:14:38;;;;;;;;;;;;;;;10.26;100.00;101614.38;8382506;28;20110;-54
2022/10/03 02:18:49;;;;;;;20.40;5.88;;;;;;;10.28;100.00;101616.94;8380355;28;19923;-52
2022/10/03 02:22:54;;;;;;;23.20;5.60;;;;;;;10.17;100.00;101615.03;8379747;28;20041;-52
2022/10/03 02:27:29;;;;;;;16.45;5.72;;;;;;;10.13;100.00;101613.53;8371447;28;20260;-51
2022/10/03 02:45:09;;;;;;;21.05;5.50;;;;;;;9.96;100.00;101595.81;8320025;27;20977;-51
2022/10/03 02:49:49;;;;;;;20.00;5.18;;;;;;;9.56;100.00;101607.72;8305662;28;20115;-53
2022/10/03 02:58:40;;;;;;;15.25;5.00;;;;;;;9.33;100.00;101604.91;8330952;27;20817;-52
2022/10/03 03:03:20;;;;;;;17.38;5.50;;;;;;;9.59;100.00;101606.63;8293098;28;20158;-54
2022/10/03 03:07:31;;;;;;;13.43;5.32;;;;;;;9.43;100.00;101617.63;8282659;28;20042;-53
2022/10/03 03:16:54;;;;;;;16.25;4.93;;;;;;;9.27;100.00;101630.44;8280636;27;20929;-52
2022/10/03 03:21:33;;;;;;;17.58;5.53;;;;;;;9.23;100.00;101630.75;8278008;28;20827;-54
2022/10/03 03:26:13;;;;;;;27.90;7.10;;;;;;;9.22;100.00;101635.31;8282660;28;20051;-51
2022/10/03 03:30:18;;;;;;;27.42;6.88;;;;;;;9.21;100.00;101635.41;8282433;28;20049;-52
2022/10/03 03:34:35;;;;;;;16.15;5.13;;;;;;;8.97;100.00;101637.06;8284102;28;20038;-53
2022/10/03 03:38:56;;;;;;;17.98;5.70;;;;;;;8.93;100.00;101638.22;8282316;28;20046;-54
2022/10/03 03:48:12;;;;;;;18.65;5.35;;;;;;;9.04;100.00;101635.69;8392056;27;20887;-54
2022/10/03 03:52:37;;;;;;;14.60;6.40;;;;;;;9.00;100.00;101636.88;8377714;28;20435;-54
2022/10/03 03:57:06;;;;;;;16.00;5.95;;;;;;;8.79;100.00;101635.59;8381612;28;20036;-54
2022/10/03 04:01:40;;;;;;;17.45;6.28;;;;;;;8.71;100.00;101643.31;8376735;28;20075;-54
2022/10/03 04:06:02;;;;;;;;;;;;;;;8.82;100.00;101641.66;8381477;28;20044;-54
2022/10/03 04:10:37;;;;;;;21.50;6.47;;;;;;;8.84;100.00;101645.09;8381128;28;19936;-52
2022/10/03 04:19:52;;;;;;;15.35;5.60;;;;;;;8.57;100.00;101648.78;8387811;27;20382;-51
2022/10/03 04:29:03;;;;;;;14.70;5.43;;;;;;;8.65;100.00;101649.13;8302926;28;20130;-51
2022/10/03 04:38:14;;;;;;;20.73;5.70;;;;;;;8.56;100.00;101655.97;8318202;27;20419;-55
2022/10/03 04:51:25;;;;;;;26.42;6.30;;;;;;;8.53;100.00;101655.31;8323065;27;20408;-52
2022/10/03 04:55:44;;;;;;;12.75;4.88;;;;;;;8.44;100.00;101655.91;8315759;28;20076;-50
2022/10/03 04:59:55;;;;;;;14.00;5.97;;;;;;;8.45;100.00;101663.03;8316010;28;20045;-50
2022/10/03 05:04:25;;;;;;;20.98;6.93;;;;;;;8.60;100.00;101662.06;8339304;28;20502;-52
2022/10/03 05:08:37;;;;;;;19.50;7.72;;;;;;;8.72;100.00;101661.25;8325676;28;20050;-51
2022/10/03 05:12:54;;;;;;;24.00;8.45;;;;;;;8.74;100.00;101664.69;8310497;28;20128;-51
2022/10/03 05:17:20;;;;;;;17.02;7.20;;;;;;;8.61;100.00;101663.78;8314904;28;20041;-54
2022/10/03 05:21:37;;;;;;;26.08;8.63;;;;;;;8.71;100.00;101670.28;8319828;28;20136;-51
2022/10/03 05:26:18;;;;;;;16.48;7.78;;;;;;;8.80;100.00;101675.94;8347528;28;20466;-54
2022/10/03 05:30:58;;;;;;;16.70;6.80;;;;;;;8.41;100.00;101672.25;8344375;28;20349;-54
2022/10/03 05:35:14;;;;;;;16.38;6.90;;;;;;;8.38;100.00;101673.34;8345063;28;20514;-54
2022/10/03 05:39:41;;;;;;;17.10;6.80;;;;;;;8.29;100.00;101679.31;8337958;28;20534;-55
2022/10/03 05:44:05;;;;;;;17.60;7.20;;;;;;;8.26;100.00;101684.91;8344661;28;20044;-54
2022/10/03 05:53:00;;;;;;;16.98;7.80;;;;;;;8.28;100.00;101688.38;8291472;28;20789;-53
2022/10/03 05:57:41;;;;;;;21.83;8.35;;;;;;;8.27;100.00;101691.16;8283807;28;20038;-55
2022/10/03 06:02:11;;;;;;;19.98;8.23;;;;;;;8.22;100.00;101696.84;8317447;28;20057;-53
2022/10/03 06:06:21;;;;;;;21.40;7.90;;;;;;;8.29;100.00;101706.25;8318042;28;20050;-52
2022/10/03 06:10:45;;;;;;;30.17;9.48;;;;;;;8.33;100.00;101701.56;8317671;28;20107;-51
2022/10/03 06:15:25;;;;;;;17.92;8.90;;;;;;;8.41;100.00;101704.59;8317864;28;20430;-51
2022/10/03 06:20:02;;;;;;;21.88;8.32;;;;;;;8.51;100.00;101713.84;8320878;28;20466;-53
2022/10/03 06:29:14;;;;;;;30.08;8.50;;;;;;;8.79;100.00;101711.09;8392930;27;20032;-50
2022/10/03 06:33:51;;;;;;;25.13;8.85;;;;;;;9.05;100.00;101708.41;8356249;28;20061;-51
2022/10/03 06:38:26;;;;;;;21.80;8.05;;;;;;;9.45;100.00;101712.84;8354990;28;20038;-52
2022/10/03 06:43:06;;;;;;;27.00;10.25;;;;;;;9.72;100.00;101710.09;8356118;28;20083;-51
2022/10/03 06:47:20;;;;;;;18.92;7.75;;;;;;;9.98;100.00;101722.66;8381683;28;20072;-55
2022/10/03 06:52:00;;;;;;;21.85;7.13;;;;;;;10.57;100.00;101722.00;8375929;28;20065;-54
2022/10/03 06:56:41;;;;;;;19.92;8.38;;;;;;;11.23;100.00;101722.41;8381621;28;20064;-53
2022/10/03 07:01:22;;;;;;;20.73;8.57;;;;;;;11.88;100.00;101720.97;8393899;28;20068;-56
2022/10/03 07:06:02;;;;;;;15.52;7.25;;;;;;;12.24;100.00;101716.34;8375663;28;20025;-52
2022/10/03 07:10:31;;;;;;;19.42;8.25;;;;;;;12.36;100.00;101720.78;8348146;28;20055;-54
2022/10/03 07:15:12;;;;;;;23.48;8.60;;;;;;;12.92;100.00;101720.63;8345016;28;20545;-54
2022/10/03 07:19:39;;;;;;;19.10;7.63;;;;;;;13.05;100.00;101723.25;8344736;28;20380;-55
2022/10/03 07:24:08;;;;;;;15.35;7.82;;;;;;;13.29;100.00;101723.88;8344650;28;20054;-55
2022/10/03 07:28:49;;;;;;;17.67;7.70;;;;;;;13.47;100.00;101735.91;8344651;28;20040;-56
2022/10/03 07:33:29;;;;;;;21.83;6.53;;;;;;;14.13;100.00;101738.31;8345536;28;20131;-52
2022/10/03 07:39:10;;;;;;;21.25;6.75;;;;;;;14.69;100.00;101745.06;8346668;28;20506;-56
2022/10/03 07:42:55;;;;;;;21.15;5.70;;;;;;;15.13;100.00;101736.47;8344721;28;20495;-54
2022/10/03 07:47:32;;;;;;;21.35;5.55;;;;;;;15.52;100.00;101751.03;8352137;28;20294;-53
2022/10/03 07:51:52;;;;;;;20.38;5.82;;;;;;;15.47;98.38;101750.63;8352828;28;20041;-52
2022/10/03 08:00:21;;;;;;;19.33;6.03;;;;;;;15.41;98.10;101762.94;8331347;27;20381;-56
2022/10/03 08:09:05;;;;;;;24.77;7.28;;;;;;;15.51;98.53;101773.84;8379281;27;20443;-50
2022/10/03 08:13:48;;;;;;;19.35;7.22;;;;;;;15.55;97.94;101775.28;8353372;28;20052;-53
2022/10/03 08:18:28;;;;;;;25.40;6.97;;;;;;;15.35;97.41;101774.38;8345859;28;20513;-49
2022/10/03 08:23:00;;;;;;;27.45;7.35;;;;;;;15.41;97.32;101768.38;8347826;28;20076;-54
2022/10/03 08:27:35;;;;;;;26.08;6.78;;;;;;;15.93;97.11;101783.50;8343560;28;20112;-52
2022/10/03 08:32:16;;;;;;;22.95;7.03;;;;;;;16.07;95.22;101779.47;8364600;28;20536;-52
2022/10/03 08:36:42;;;;;;;29.83;8.27;;;;;;;16.04;93.02;101777.03;8346766;28;20119;-53
2022/10/03 08:41:22;;;;;;;32.42;7.30;;;;;;;16.29;92.73;101781.88;8343148;28;20041;-51
2022/10/03 08:45:43;;;;;;;23.55;7.15;;;;;;;16.19;90.74;101786.50;8329568;28;20088;-51
2022/10/03 08:50:14;;;;;;;14.25;6.22;;;;;;;16.32;92.45;101787.03;8335261;28;20091;-52
2022/10/03 08:54:47;;;;;;;22.60;5.32;;;;;;;17.17;91.59;101781.28;8333497;28;20086;-54
2022/10/03 08:59:27;;;;;;;20.20;5.30;;;;;;;17.57;86.86;101780.94;8337363;28;20037;-51
2022/10/03 09:04:08;;;;;;;26.58;5.50;;;;;;;18.37;84.60;101781.69;8338812;28;20041;-54
2022/10/03 09:08:35;;;;;;;20.00;5.85;;;;;;;20.34;75.33;101783.78;8341901;28;20128;-53
2022/10/03 09:13:15;;;;;;;17.75;5.05;;;;;;;21.63;68.90;101779.56;8344425;28;20044;-55
2022/10/03 09:17:55;;;;;;;14.02;4.43;;;;;;;21.86;68.01;101772.22;8365526;28;20406;-54
2022/10/03 09:26:55;;;;;;;15.93;3.45;;;;;;;23.50;62.70;101781.19;8379939;27;20383;-54
2022/10/03 09:31:23;;;;;;;13.48;3.78;;;;;;;22.21;66.09;101779.84;8377761;28;20505;-55
2022/10/03 09:40:24;;;;;;;11.43;2.83;;;;;;;23.46;61.41;101774.38;8380833;27;20364;-55
2022/10/03 09:44:59;;;;;;;9.35;2.75;;;;;;;23.99;59.12;101776.69;8370077;28;20310;-52
2022/10/03 09:49:39;;;;;;;15.13;3.35;;;;;;;22.90;61.81;101771.25;8369533;28;20138;-55
2022/10/03 09:54:07;;;;;;;17.48;3.45;;;;;;;19.72;72.04;101773.41;8370913;28;20054;-55
2022/10/03 10:03:21;;;;;;;11.00;2.22;;;;;;;18.36;77.10;101766.22;8388667;27;20397;-54
2022/10/03 10:12:35;;;;;;;12.45;2.13;;;;;;;19.61;73.32;101762.75;8311898;27;20442;-51
2022/10/03 10:17:09;;;;;;;8.38;1.65;;;;;;;19.74;68.30;101752.13;8287986;28;20042;-51
2022/10/03 10:21:30;;;;;;;;;;;;;;;18.12;73.45;101766.06;8276060;28;20042;-52
2022/10/03 10:25:58;;;;;;;13.02;1.60;;;;;;;17.94;75.17;101754.28;8269053;28;19917;-55
2022/10/03 10:30:34;;;;;;;10.10;2.00;;;;;;;18.18;72.51;101757.22;8301932;28;20044;-54
2022/10/03 10:35:14;;;;;;;5.75;1.30;;;;;;;19.33;69.44;101741.09;8305799;28;20055;-55
2022/10/03 10:39:52;;;;;;;6.47;0.90;;;;;;;18.82;67.00;101735.72;8304517;28;20298;-52
2022/10/03 10:44:32;;;;;;;4.45;0.80;;;;;;;22.33;58.95;101741.69;8295134;28;20045;-51
2022/10/03 10:49:12;;;;;;;6.20;0.98;;;;;;;23.83;54.13;101735.47;8301554;28;20625;-51
2022/10/03 10:53:53;;;;;;;4.80;1.10;;;;;;;25.61;53.21;101743.78;8299051;28;20099;-54
2022/10/03 10:58:34;;;;;;;6.40;1.38;;;;;;;26.27;49.99;101737.31;8299966;28;20111;-54
2022/10/03 11:03:15;;;;;;;7.65;1.23;;;;;;;24.35;52.58;101738.75;8303537;28;20046;-51
2022/10/03 11:07:54;;;;;;;9.60;1.73;;;;;;;21.64;58.81;101739.97;8257865;28;20093;-55
2022/10/03 11:16:54;;;;;;;8.55;1.35;;;;;;;20.09;64.32;101727.09;8336550;27;20908;-53
2022/10/03 11:21:34;;;;;;;3.80;0.90;;;;;;;19.32;64.63;101731.16;8291888;28;20052;-51
2022/10/03 11:26:17;;;;;;;8.05;1.40;;;;;;;19.19;67.14;101725.22;8309611;28;20140;-50
2022/10/03 11:35:05;;;;;;;9.43;0.98;;;;;;;25.67;50.25;101720.78;8376991;27;20389;-49
2022/10/03 11:39:14;;;;;;;4.33;1.20;;;;;;;25.75;50.27;101723.34;8357885;28;20043;-50
2022/10/03 11:43:54;;;;;;;5.32;1.10;;;;;;;22.92;53.66;101711.22;8353875;28;20037;-49
2022/10/03 11:48:20;;;;;;;6.57;0.70;;;;;;;20.48;61.55;101722.59;8386426;27;20103;-49
2022/10/03 11:52:32;;;;;;;5.85;1.08;;;;;;;20.33;61.50;101713.38;8382914;27;20059;-50
2022/10/03 11:56:42;;;;;;;9.15;1.45;;;;;;;20.18;62.25;101713.22;8390757;27;20300;-53
2022/10/03 12:00:52;;;;;;;6.00;1.20;;;;;;;19.46;63.99;101708.53;8395800;27;20369;-50
2022/10/03 12:04:58;;;;;;;9.80;2.17;;;;;;;18.85;66.58;101707.97;8397743;27;20036;-50
2022/10/03 12:13:59;;;;;;;7.30;1.45;;;;;;;18.66;70.53;101708.25;8268942;28;20986;-50
2022/10/03 12:18:16;;;;;;;8.05;1.88;;;;;;;18.52;70.89;101717.09;8256828;28;20505;-50
2022/10/03 12:22:45;;;;;;;9.82;1.50;;;;;;;18.47;71.50;101716.69;8254392;28;20117;-54
2022/10/03 12:27:05;;;;;;;12.20;1.95;;;;;;;18.22;72.90;101713.94;8258629;28;20195;-54
2022/10/03 12:31:28;;;;;;;9.38;1.38;;;;;;;18.29;72.27;101707.66;8268341;28;20045;-53
2022/10/03 12:35:53;;;;;;;4.80;0.90;;;;;;;18.20;72.60;101705.88;8272256;28;20042;-52
2022/10/03 12:40:17;;;;;;;10.35;2.45;;;;;;;18.09;72.31;101699.81;8261740;28;20092;-52
2022/10/03 12:44:39;;;;;;;;;;;;;;;18.07;73.42;101697.25;8258282;28;20039;-51
2022/10/03 12:53:22;;;;;;;10.45;1.80;;;;;;;18.11;71.13;101695.88;8364507;27;20399;-54
2022/10/03 12:57:49;;;;;;;12.43;1.95;;;;;;;18.51;69.54;101704.38;8312298;28;20102;-52
2022/10/03 13:02:21;;;;;;;5.22;1.00;;;;;;;19.27;70.14;101691.53;8301637;28;20033;-55
2022/10/03 13:06:37;;;;;;;5.50;1.33;;;;;;;19.32;65.69;101695.50;8318445;28;20257;-55
2022/10/03 13:10:44;;;;;;;3.50;0.95;;;;;;;19.23;67.49;101684.63;8309619;28;20185;-52
2022/10/03 13:15:25;;;;;;;8.45;1.30;;;;;;;18.77;67.22;101698.88;8307462;28;20042;-55
2022/10/03 13:19:37;;;;;;;9.57;1.35;;;;;;;18.79;69.59;101692.19;8304977;28;20037;-56
2022/10/03 13:23:53;;;;;;;6.22;1.50;;;;;;;18.95;67.67;101685.94;8317685;28;20116;-54
2022/10/03 13:28:07;;;;;;;8.50;1.35;;;;;;;19.57;68.36;101676.34;8314497;28;20034;-55
2022/10/03 13:32:15;;;;;;;7.60;1.25;;;;;;;19.06;66.15;101678.25;8315997;28;20033;-56
2022/10/03 13:36:25;;;;;;;3.47;1.17;;;;;;;18.96;66.42;101666.56;8304888;28;20049;-56
2022/10/03 13:40:29;;;;;;;7.32;1.17;;;;;;;19.17;66.46;101658.75;8297836;28;20339;-54
2022/10/03 13:44:54;;;;;;;5.90;1.00;;;;;;;19.27;64.40;101655.88;8308041;28;20037;-54
2022/10/03 13:49:00;;;;;;;6.95;1.15;;;;;;;19.31;64.43;101658.09;8310579;28;20059;-55
2022/10/03 13:53:07;;;;;;;8.60;1.77;;;;;;;19.12;65.01;101655.66;8310789;28;20038;-56
2022/10/03 13:57:17;;;;;;;5.93;0.80;;;;;;;19.48;64.47;101648.00;8305820;28;20043;-55
2022/10/03 14:06:23;;;;;;;4.57;0.80;;;;;;;19.04;62.70;101646.56;8303727;28;20395;-55
2022/10/03 14:10:53;;;;;;;4.57;0.88;;;;;;;18.97;63.60;101640.88;8274958;28;20045;-55
2022/10/03 14:15:26;;;;;;;4.18;0.80;;;;;;;18.79;63.56;101640.13;8278033;28;20038;-54
2022/10/03 14:19:58;;;;;;;4.53;1.00;;;;;;;18.96;64.70;101639.16;8267622;28;20038;-55
2022/10/03 14:28:40;;;;;;;5.68;0.77;;;;;;;18.72;64.99;101644.56;8287287;28;20398;-57
2022/10/03 14:33:09;;;;;;;5.60;0.90;;;;;;;18.66;65.90;101636.16;8287807;28;20523;-56
2022/10/03 14:37:41;;;;;;;6.35;0.90;;;;;;;18.64;65.70;101640.94;8281711;28;20501;-53
2022/10/03 14:42:05;;;;;;;7.97;1.17;;;;;;;18.41;64.76;101637.94;8278288;28;20046;-56
2022/10/03 14:46:08;;;;;;;4.72;0.60;;;;;;;18.43;64.37;101627.69;8276530;28;20686;-53
2022/10/03 14:50:16;;;;;;;5.50;0.98;;;;;;;18.59;63.97;101619.53;8275073;28;20050;-55
2022/10/03 14:54:21;;;;;;;7.35;0.90;;;;;;;18.47;64.13;101615.38;8277506;28;20034;-55
2022/10/03 14:58:28;;;;;;;2.92;0.50;;;;;;;18.62;65.18;101610.09;8270589;28;20069;-53
2022/10/03 15:02:44;;;;;;;5.10;0.70;;;;;;;18.63;65.97;101607.19;8267990;28;20038;-54
2022/10/03 15:10:59;;;;;;;4.00;0.80;;;;;;;18.65;66.98;101607.91;8387047;27;20417;-52
2022/10/03 15:15:14;;;;;;;5.88;1.40;;;;;;;18.63;67.52;101601.72;8353833;28;20402;-54
2022/10/03 15:19:19;;;;;;;7.75;1.00;;;;;;;18.68;65.66;101595.75;8358772;28;20044;-55
2022/10/03 15:23:25;;;;;;;4.45;0.88;;;;;;;18.46;66.10;101596.34;8374892;28;20541;-55
2022/10/03 15:27:27;;;;;;;8.32;0.98;;;;;;;18.41;66.42;101591.38;8369671;28;20045;-52
2022/10/03 15:31:56;;;;;;;3.03;0.63;;;;;;;18.45;65.73;101600.97;8371071;28;20098;-55
2022/10/03 15:40:29;;;;;;;6.18;0.88;;;;;;;18.21;67.65;101587.13;8308300;27;20425;-55
2022/10/03 15:44:38;;;;;;;7.43;1.00;;;;;;;18.07;66.90;101590.50;8263609;28;20034;-55
2022/10/03 15:48:41;;;;;;;2.50;0.68;;;;;;;18.10;67.08;101590.16;8287369;28;20588;-56
2022/10/03 15:52:47;;;;;;;4.57;0.90;;;;;;;17.95;69.92;101590.91;8281753;28;20072;-55
2022/10/03 15:56:54;;;;;;;5.55;1.05;;;;;;;17.81;71.56;101573.22;8309369;28;20042;-56
2022/10/03 16:01:19;;;;;;;5.00;0.80;;;;;;;17.72;70.68;101571.47;8311920;28;20045;-55
2022/10/03 16:05:24;;;;;;;4.82;0.80;;;;;;;17.63;71.99;101569.69;8309628;28;20141;-55
2022/10/03 16:09:34;;;;;;;10.05;1.27;;;;;;;17.55;72.83;101580.56;8280694;28;20038;-56
2022/10/03 16:13:40;;;;;;;4.57;0.98;;;;;;;17.40;75.73;101580.25;8279984;28;20050;-56
2022/10/03 16:17:48;;;;;;;6.32;1.40;;;;;;;17.29;80.31;101574.16;8290537;28;20037;-56
2022/10/03 16:22:01;;;;;;;10.43;1.38;;;;;;;17.18;78.82;101569.81;8251720;28;20042;-56
2022/10/03 16:26:06;;;;;;;7.32;1.30;;;;;;;17.15;76.91;101563.81;8264284;28;20597;-56
2022/10/03 16:30:17;;;;;;;4.60;1.15;;;;;;;17.09;78.96;101565.31;8263499;28;20049;-55
2022/10/03 16:34:21;;;;;;;7.13;1.50;;;;;;;17.16;77.49;101563.66;8294547;28;20168;-56
2022/10/03 16:38:25;;;;;;;8.50;2.38;;;;;;;17.04;78.56;101555.84;8315691;28;20033;-56
2022/10/03 16:42:38;;;;;;;4.30;1.10;;;;;;;16.93;82.12;101548.72;8308996;28;20491;-56
2022/10/03 16:46:42;;;;;;;6.28;0.90;;;;;;;16.58;87.90;101531.47;8306309;28;20125;-56
2022/10/03 16:50:50;;;;;;;6.30;1.17;;;;;;;16.25;90.08;101534.84;8294692;28;20048;-56
2022/10/03 16:55:03;;;;;;;6.22;1.40;;;;;;;16.01;90.11;101537.25;8292082;28;20038;-56
2022/10/03 16:59:10;;;;;;;3.67;1.17;;;;;;;16.10;85.06;101537.19;8290968;28;20042;-56
2022/10/03 17:03:18;;;;;;;6.10;0.98;;;;;;;16.06;84.71;101535.78;8250260;28;20041;-56
2022/10/03 17:07:22;;;;;;;7.90;1.13;;;;;;;15.88;86.48;101532.13;8263237;28;20129;-54
2022/10/03 17:11:26;;;;;;;9.98;1.48;;;;;;;15.70;89.15;101523.88;8252406;28;20509;-53
2022/10/03 17:15:33;;;;;;;7.18;1.27;;;;;;;15.64;89.56;101523.59;8245586;28;20041;-55
2022/10/03 17:19:45;;;;;;;6.75;1.05;;;;;;;15.60;91.06;101523.06;8258467;28;20043;-54
2022/10/03 17:24:11;;;;;;;7.00;0.98;;;;;;;15.68;90.32;101520.44;8275985;28;20595;-53
2022/10/03 17:28:26;;;;;;;8.32;1.48;;;;;;;15.77;91.55;101524.16;8289501;28;20033;-56
2022/10/03 17:32:35;;;;;;;10.48;2.22;;;;;;;15.62;90.02;101515.56;8285709;28;20038;-55
2022/10/03 17:36:59;;;;;;;4.00;1.50;;;;;;;15.32;92.37;101523.09;8290330;28;20076;-56
2022/10/03 17:41:17;;;;;;;4.45;1.30;;;;;;;14.68;96.76;101520.16;8283851;28;20041;-56
2022/10/03 17:45:43;;;;;;;8.40;1.60;;;;;;;14.70;96.14;101520.00;8288047;28;20038;-55
2022/10/03 17:50:09;;;;;;;11.35;1.70;;;;;;;14.52;98.37;101519.81;8286347;28;20092;-55
2022/10/03 17:54:14;;;;;;;6.28;1.38;;;;;;;14.40;99.40;101518.25;8287598;28;20044;-54
2022/10/03 17:58:20;;;;;;;10.77;2.00;;;;;;;14.37;100.00;101517.66;8258141;28;20062;-55
2022/10/03 18:02:47;;;;;;;9.75;1.75;;;;;;;14.53;98.59;101527.00;8284898;28;20042;-56
2022/10/03 18:06:53;;;;;;;8.75;1.88;;;;;;;14.55;99.58;101524.97;8270990;28;20057;-55
2022/10/03 18:10:56;;;;;;;8.43;2.38;;;;;;;14.36;100.00;101521.41;8289278;28;20060;-52
2022/10/03 18:15:21;;;;;;;7.38;1.65;;;;;;;14.29;100.00;101521.09;8275609;28;20038;-55
2022/10/03 18:24:12;;;;;;;6.63;2.42;;;;;;;14.36;99.41;101516.78;8385790;27;20385;-54
2022/10/03 18:28:22;;;;;;;16.20;2.30;;;;;;;14.07;100.00;101502.25;8369597;27;20090;-53
2022/10/03 18:32:28;;;;;;;11.85;3.75;;;;;;;14.28;98.61;101497.63;8333748;28;20033;-54
2022/10/03 18:36:34;;;;;;;11.75;4.07;;;;;;;14.55;98.21;101500.47;8309707;28;20504;-55
2022/10/03 18:40:44;;;;;;;7.93;3.22;;;;;;;14.59;98.59;101507.38;8341212;28;20061;-54
2022/10/03 18:44:45;;;;;;;9.85;3.33;;;;;;;14.71;98.68;101500.81;8299797;28;20574;-54
2022/10/03 18:49:16;;;;;;;7.97;2.78;;;;;;;14.20;100.00;101500.13;8307568;28;20403;-54
2022/10/03 18:53:35;;;;;;;9.88;2.42;;;;;;;14.30;100.00;101495.59;8311627;28;20080;-53
2022/10/03 18:57:46;;;;;;;10.07;3.28;;;;;;;13.83;100.00;101496.28;8311384;28;20049;-52
2022/10/03 19:01:53;;;;;;;10.18;3.47;;;;;;;13.69;100.00;101496.66;8311053;28;20061;-54
2022/10/03 19:06:03;;;;;;;10.68;3.17;;;;;;;13.58;100.00;101499.47;8311855;28;20042;-55
2022/10/03 19:14:40;;;;;;;9.93;3.33;;;;;;;13.58;100.00;101491.34;8289354;28;20945;-54
2022/10/03 19:18:46;;;;;;;7.45;2.67;;;;;;;13.50;100.00;101492.00;8280798;28;20690;-54
2022/10/03 19:23:14;;;;;;;11.48;3.92;;;;;;;13.54;100.00;101484.44;8281502;28;20073;-54
2022/10/03 19:27:20;;;;;;;8.98;3.45;;;;;;;13.53;100.00;101490.88;8282613;28;20038;-55
2022/10/03 19:31:31;;;;;;;12.25;3.92;;;;;;;13.76;100.00;101489.69;8281837;28;20320;-55
2022/10/03 19:35:38;;;;;;;9.13;3.60;;;;;;;13.82;100.00;101500.03;8281985;28;20046;-54
2022/10/03 19:39:39;;;;;;;12.93;3.88;;;;;;;13.63;100.00;101505.34;8290082;28;20425;-54
2022/10/03 19:43:44;;;;;;;8.43;3.42;;;;;;;13.51;100.00;101507.31;8311509;28;20476;-52
2022/10/03 19:47:58;;;;;;;10.55;4.10;;;;;;;13.17;100.00;101508.53;8300784;28;20038;-54
2022/10/03 19:52:23;;;;;;;15.43;4.75;;;;;;;12.94;100.00;101503.34;8278351;28;20046;-55
2022/10/03 19:56:29;;;;;;;10.10;4.13;;;;;;;13.07;100.00;101510.34;8300198;28;20529;-54
2022/10/03 20:00:36;;;;;;;17.75;9.93;;;;;;;13.17;100.00;101507.66;8300008;28;20041;-53
2022/10/03 20:04:37;;;;;;;25.00;12.10;;;;;;;13.41;100.00;101505.53;8285376;28;20561;-52
2022/10/03 20:08:43;;;;;;;26.52;13.32;;;;;;;13.15;100.00;101505.09;8287346;28;20041;-52
2022/10/03 20:12:49;;;;;;;19.55;11.38;;;;;;;13.28;100.00;101508.47;8307807;28;20104;-53
2022/10/03 20:16:54;;;;;;;22.30;8.80;;;;;;;13.20;100.00;101512.84;8296444;28;20046;-53
2022/10/03 20:20:56;;;;;;;11.70;5.40;;;;;;;13.17;100.00;101511.25;8275999;28;20061;-51
2022/10/03 20:24:59;;;;;;;12.07;4.32;;;;;;;12.89;100.00;101513.72;8262036;28;20475;-53
2022/10/03 20:29:30;;;;;;;17.42;4.70;;;;;;;12.84;100.00;101499.69;8258796;28;20042;-54
2022/10/03 20:33:34;;;;;;;10.30;4.60;;;;;;;12.92;100.00;101487.19;8259707;28;20389;-52
2022/10/03 20:38:03;;;;;;;10.67;4.30;;;;;;;12.88;100.00;101498.44;8259032;28;20065;-52
2022/10/03 20:42:18;;;;;;;9.90;5.00;;;;;;;12.70;100.00;101491.88;8283297;28;20076;-53
2022/10/03 20:46:41;;;;;;;15.80;6.85;;;;;;;12.78;100.00;101495.63;8264823;28;20061;-54
2022/10/03 20:50:45;;;;;;;9.25;4.70;;;;;;;12.66;100.00;101491.25;8258576;28;20069;-54
2022/10/03 20:54:49;;;;;;;10.27;3.80;;;;;;;12.59;100.00;101495.50;8262507;28;20061;-55
2022/10/03 20:58:52;;;;;;;14.48;5.03;;;;;;;12.47;100.00;101487.53;8260980;28;20034;-54
2022/10/03 21:03:11;;;;;;;10.35;5.00;;;;;;;12.22;100.00;101480.56;8258768;28;20098;-51
2022/10/03 21:07:27;;;;;;;12.27;5.72;;;;;;;12.18;100.00;101470.13;8258487;28;20042;-54
2022/10/03 21:11:30;;;;;;;10.18;5.13;;;;;;;12.08;100.00;101474.59;8271019;28;20046;-53
2022/10/03 21:15:47;;;;;;;8.87;5.23;;;;;;;12.03;100.00;101474.09;8258465;28;20653;-54
2022/10/03 21:19:52;;;;;;;10.02;6.53;;;;;;;11.95;100.00;101477.44;8257512;28;20105;-55
2022/10/03 21:24:00;;;;;;;12.65;6.70;;;;;;;11.86;100.00;101476.34;8256551;28;20038;-52
2022/10/03 21:28:03;;;;;;;15.38;6.90;;;;;;;11.81;100.00;101470.44;8261591;28;20043;-54
2022/10/03 21:32:43;;;;;;;10.70;6.93;;;;;;;11.79;100.00;101472.44;8257818;28;20038;-51
2022/10/03 21:41:42;;;;;;;10.25;6.68;;;;;;;11.76;100.00;101469.97;8338633;27;20384;-50
2022/10/03 21:45:58;;;;;;;13.95;7.90;;;;;;;11.79;100.00;101464.31;8347207;28;20044;-50
2022/10/03 21:50:01;;;;;;;15.00;7.85;;;;;;;11.81;100.00;101450.63;8309096;28;20044;-51
2022/10/03 21:54:32;;;;;;;16.13;9.38;;;;;;;11.70;100.00;101456.91;8316156;28;20581;-52
2022/10/03 21:59:03;;;;;;;20.73;11.23;;;;;;;11.66;100.00;101465.41;8319442;28;20033;-52
2022/10/03 22:03:18;;;;;;;15.88;8.20;;;;;;;11.64;100.00;101460.13;8347637;28;20052;-51
2022/10/03 22:07:37;;;;;;;19.73;11.88;;;;;;;11.54;100.00;101451.00;8346159;28;20413;-50
2022/10/03 22:11:48;;;;;;;16.58;9.00;;;;;;;11.51;100.00;101443.13;8329133;28;20104;-54
2022/10/03 22:15:57;;;;;;;13.60;7.90;;;;;;;11.45;100.00;101457.16;8314940;28;20042;-51
2022/10/03 22:24:33;;;;;;;11.55;7.43;;;;;;;10.99;100.00;101448.25;8316353;27;20381;-54
2022/10/03 22:29:14;;;;;;;12.13;7.85;;;;;;;10.91;100.00;101448.00;8308971;28;20600;-51
2022/10/03 22:33:21;;;;;;;13.93;8.15;;;;;;;10.95;100.00;101444.06;8307476;28;20048;-52
2022/10/03 22:37:22;;;;;;;16.13;8.95;;;;;;;10.98;100.00;101443.81;8308293;28;20068;-50
2022/10/03 22:41:27;;;;;;;15.73;7.75;;;;;;;10.86;100.00;101447.47;8315432;28;20041;-51
2022/10/03 22:45:31;;;;;;;15.63;8.13;;;;;;;10.79;100.00;101446.25;8306988;28;20457;-54